Terminal Aerodrome Forecast
Issued by NWS Blacksburg, VA

Home | Current Version | Previous Version | Text Only | Print | Product List | Glossary On
Versions: 1 2 3 4 5 6 7 8 9 10 11 12 13 14 15 16 17 18 19 20 21 22
000
FTUS41 KRNK 261129
TAFROA
TAF
KROA 261129Z 2612/2712 VRB03KT P6SM OVC090
     FM261500 16007KT P6SM OVC060
     FM270200 16005KT P6SM -SHRA OVC030
     FM270600 17003KT P6SM OVC020=

USA.gov is the U.S. government's official web portal to all federal, state and local government web resources and services.